Time;durP1;ratioP1;P1;durP2;ratioP2;P2;SDS_P1;SDS_P2;PMS_P1;PMS_P2;Temp;Humidity;BMP_temperature;BMP_pressure;BME280_temperature;BME280_humidity;BME280_pressure;Samples;Min_cycle;Max_cycle;Signal;HPM_P1;HPM_P2
2020/12/02 08:00:37;;;;;;;11.07;6.18;;;18.10;67.40;;;;;;5078381;27;20371;-44
2020/12/02 08:03:03;;;;;;;12.32;6.93;;;18.10;68.00;;;;;;5082096;28;20064;-43
2020/12/02 08:05:44;;;;;;;9.43;6.00;;;18.10;67.80;;;;;;5075825;28;20406;-42
2020/12/02 08:08:09;;;;;;;12.77;7.30;;;18.20;67.80;;;;;;5084917;28;20043;-42
2020/12/02 08:10:36;;;;;;;9.75;5.30;;;18.20;67.70;;;;;;5087628;28;20102;-43
2020/12/02 08:13:05;;;;;;;13.73;6.80;;;18.20;67.60;;;;;;5085188;28;20821;-41
2020/12/02 08:15:48;;;;;;;11.10;7.10;;;18.30;67.40;;;;;;5094934;28;20044;-42
2020/12/02 08:18:22;;;;;;;13.73;6.65;;;18.30;67.50;;;;;;5076386;28;20072;-44
2020/12/02 08:20:47;;;;;;;8.95;6.32;;;18.30;67.30;;;;;;5098486;28;20108;-41
2020/12/02 08:23:14;;;;;;;11.80;6.60;;;18.30;67.20;;;;;;5087910;28;20051;-44
2020/12/02 08:26:03;;;;;;;9.85;5.80;;;18.30;67.10;;;;;;5085095;28;20051;-41
2020/12/02 08:28:33;;;;;;;8.07;5.72;;;18.30;67.10;;;;;;5078869;28;20133;-37
2020/12/02 08:31:17;;;;;;;9.50;6.10;;;18.40;67.10;;;;;;5089792;28;20127;-42
2020/12/02 08:34:11;;;;;;;8.05;5.18;;;18.40;66.80;;;;;;5095263;28;20051;-43
2020/12/02 08:36:37;;;;;;;11.27;6.20;;;18.40;66.90;;;;;;5086977;28;20051;-42
2020/12/02 08:39:03;;;;;;;10.70;5.53;;;18.50;66.40;;;;;;5083618;28;20040;-44
2020/12/02 08:41:46;;;;;;;7.03;5.47;;;18.40;66.30;;;;;;5089833;28;20494;-44
2020/12/02 08:44:14;;;;;;;12.35;6.20;;;18.40;66.20;;;;;;5087724;28;20048;-42
2020/12/02 08:47:00;;;;;;;6.07;5.05;;;18.50;66.20;;;;;;5086824;28;20040;-42
2020/12/02 08:49:29;;;;;;;8.77;5.13;;;18.50;66.10;;;;;;5083384;28;20063;-42
2020/12/02 08:51:55;;;;;;;9.50;5.60;;;18.50;66.00;;;;;;5084782;28;20131;-40
2020/12/02 08:54:23;;;;;;;5.47;4.95;;;18.50;65.90;;;;;;5090050;28;20166;-41
2020/12/02 08:56:49;;;;;;;5.95;4.72;;;18.50;65.90;;;;;;5084897;28;20100;-44
2020/12/02 08:59:15;;;;;;;13.40;4.60;;;18.50;65.80;;;;;;5090128;28;20522;-41
2020/12/02 09:01:41;;;;;;;6.60;5.22;;;18.50;65.70;;;;;;5085811;28;20052;-42
2020/12/02 09:04:07;;;;;;;10.32;5.47;;;18.50;65.50;;;;;;5081832;28;20040;-41
2020/12/02 09:06:33;;;;;;;6.90;4.70;;;18.50;66.30;;;;;;5073866;28;20042;-43
2020/12/02 09:08:58;;;;;;;7.03;4.35;;;18.50;65.50;;;;;;5084525;28;20568;-42
2020/12/02 09:11:35;;;;;;;7.03;5.10;;;18.50;65.30;;;;;;5068222;28;20034;-41
2020/12/02 09:14:01;;;;;;;8.63;3.92;;;18.50;65.10;;;;;;5063979;28;20040;-41
2020/12/02 09:16:32;;;;;;;5.43;4.65;;;18.50;65.20;;;;;;5079815;28;20120;-43
2020/12/02 09:18:58;;;;;;;12.65;8.88;;;18.50;65.10;;;;;;5082224;28;20048;-41
2020/12/02 09:21:24;;;;;;;9.32;6.65;;;18.50;64.90;;;;;;5064170;28;20471;-43
2020/12/02 09:23:50;;;;;;;11.60;6.43;;;18.50;64.80;;;;;;5069585;28;20044;-43
2020/12/02 09:26:17;;;;;;;10.52;5.85;;;18.50;64.80;;;;;;5069025;28;20127;-42
2020/12/02 09:28:43;;;;;;;8.55;5.47;;;18.50;64.80;;;;;;5090160;28;20051;-41
2020/12/02 09:31:08;;;;;;;8.07;5.10;;;18.60;64.90;;;;;;5091886;28;20052;-41
2020/12/02 09:33:34;;;;;;;7.90;4.80;;;18.50;64.80;;;;;;5083521;28;20060;-43
2020/12/02 09:36:00;;;;;;;5.53;4.97;;;18.50;64.80;;;;;;5086585;28;20082;-42
2020/12/02 09:38:26;;;;;;;8.20;4.72;;;18.60;65.00;;;;;;5084124;28;20786;-42
2020/12/02 09:40:51;;;;;;;7.60;5.55;;;18.60;64.80;;;;;;5088147;28;20070;-43
2020/12/02 09:43:34;;;;;;;6.85;4.40;;;18.60;64.70;;;;;;5089959;28;20670;-41
2020/12/02 09:46:06;;;;;;;6.85;4.78;;;18.60;64.90;;;;;;5076063;28;20510;-41
2020/12/02 09:48:32;;;;;;;5.57;4.68;;;18.60;64.70;;;;;;5085842;28;20024;-41
2020/12/02 09:50:58;;;;;;;6.18;4.50;;;18.60;64.60;;;;;;5082513;28;20040;-43
2020/12/02 09:53:28;;;;;;;7.00;4.97;;;18.60;64.70;;;;;;5082392;28;20699;-39
2020/12/02 09:55:54;;;;;;;5.00;3.90;;;18.60;64.80;;;;;;5077093;28;20044;-39
2020/12/02 09:58:20;;;;;;;7.35;3.78;;;18.60;64.60;;;;;;5078815;28;20044;-43
2020/12/02 10:00:45;;;;;;;4.53;4.13;;;18.60;64.50;;;;;;5087189;28;20052;-42
2020/12/02 10:03:34;;;;;;;5.70;4.45;;;18.60;64.50;;;;;;5084460;28;20036;-38
2020/12/02 10:06:17;;;;;;;4.75;3.88;;;18.60;64.20;;;;;;5071617;28;20045;-38
2020/12/02 10:09:04;;;;;;;4.30;3.50;;;18.70;64.50;;;;;;5073441;28;20045;-39
2020/12/02 10:12:11;;;;;;;5.00;4.18;;;18.70;64.00;;;;;;5066630;28;20044;-39
2020/12/02 10:14:52;;;;;;;4.00;3.63;;;18.60;64.40;;;;;;5015776;28;20110;-38
2020/12/02 10:17:56;;;;;;;4.80;4.00;;;18.60;64.30;;;;;;5043596;28;20064;-38
2020/12/02 10:20:40;;;;;;;5.68;3.20;;;18.60;64.40;;;;;;4966231;28;20047;-39
2020/12/02 10:23:35;;;;;;;4.50;4.05;;;18.60;64.60;;;;;;4965535;28;20047;-39
2020/12/02 10:26:22;;;;;;;7.03;4.30;;;18.60;64.50;;;;;;4904076;29;20047;-39
2020/12/02 10:29:12;;;;;;;4.00;3.17;;;18.60;64.40;;;;;;4910471;29;20413;-40
2020/12/02 10:32:13;;;;;;;6.35;5.10;;;18.60;64.40;;;;;;4907151;29;20471;-39
2020/12/02 10:34:41;;;;;;;4.45;4.03;;;18.70;64.30;;;;;;4889183;29;20055;-38
2020/12/02 10:37:28;;;;;;;5.70;4.60;;;18.60;64.20;;;;;;4889579;29;20049;-38
2020/12/02 10:39:53;;;;;;;5.65;5.05;;;18.60;63.90;;;;;;4889013;29;20516;-41
2020/12/02 10:42:41;;;;;;;5.15;4.65;;;18.60;64.10;;;;;;4891081;29;20135;-39
2020/12/02 10:45:09;;;;;;;5.32;4.82;;;18.60;64.00;;;;;;4872666;29;20047;-38
2020/12/02 10:47:56;;;;;;;7.00;4.95;;;18.60;64.10;;;;;;4891183;29;20131;-39
2020/12/02 10:50:24;;;;;;;6.47;4.38;;;18.60;64.20;;;;;;4867391;29;20505;-39
2020/12/02 10:52:51;;;;;;;4.85;4.45;;;18.60;64.20;;;;;;4872974;29;20069;-39
2020/12/02 10:55:18;;;;;;;6.75;4.57;;;18.60;64.20;;;;;;4875133;29;20085;-39
2020/12/02 10:57:44;;;;;;;5.22;4.65;;;18.60;63.90;;;;;;4907230;29;20047;-38
2020/12/02 11:00:12;;;;;;;7.82;4.30;;;18.60;64.00;;;;;;4922197;29;20223;-38
2020/12/02 11:02:37;;;;;;;9.70;5.00;;;18.60;64.00;;;;;;4933963;28;20045;-39
2020/12/02 11:05:03;;;;;;;4.93;4.45;;;18.60;64.20;;;;;;5012686;28;20056;-40
2020/12/02 11:07:48;;;;;;;4.70;4.05;;;18.60;64.20;;;;;;4994418;28;20021;-41
2020/12/02 11:10:39;;;;;;;3.55;3.15;;;18.70;64.20;;;;;;5054341;28;20052;-39
2020/12/02 11:13:17;;;;;;;3.42;3.15;;;18.60;64.10;;;;;;5043861;28;20090;-39
2020/12/02 11:15:53;;;;;;;4.30;3.90;;;18.70;64.20;;;;;;5010811;28;20508;-40
2020/12/02 11:18:27;;;;;;;3.85;3.55;;;18.70;64.20;;;;;;5026093;28;20044;-39
2020/12/02 11:20:58;;;;;;;4.15;3.80;;;18.60;64.00;;;;;;5015434;28;20045;-40
2020/12/02 11:23:27;;;;;;;4.00;3.70;;;18.70;63.90;;;;;;5045379;28;20100;-39
2020/12/02 11:26:22;;;;;;;4.15;3.75;;;18.60;63.80;;;;;;5038640;28;20036;-38
2020/12/02 11:28:48;;;;;;;6.97;4.32;;;18.60;63.60;;;;;;5020933;28;20090;-39
2020/12/02 11:31:47;;;;;;;12.40;4.40;;;18.60;63.80;;;;;;5039431;28;20496;-39
2020/12/02 11:34:55;;;;;;;4.07;3.65;;;18.60;63.80;;;;;;5034085;28;20099;-38
2020/12/02 11:37:26;;;;;;;6.55;3.40;;;18.60;63.70;;;;;;5024744;28;20049;-39
2020/12/02 11:40:13;;;;;;;5.38;3.90;;;18.60;63.70;;;;;;5032347;28;20500;-39
2020/12/02 11:43:12;;;;;;;4.15;3.75;;;18.60;63.40;;;;;;5043647;28;20068;-39
2020/12/02 11:45:39;;;;;;;7.63;3.15;;;18.70;63.70;;;;;;5033010;28;20044;-39
2020/12/02 11:48:14;;;;;;;7.10;3.72;;;18.60;64.00;;;;;;5031156;28;20077;-38
2020/12/02 11:51:02;;;;;;;8.10;3.75;;;18.60;63.80;;;;;;5051075;28;20530;-39
2020/12/02 11:53:41;;;;;;;8.73;3.47;;;18.60;63.90;;;;;;5063214;28;20045;-39
2020/12/02 11:56:28;;;;;;;8.50;4.10;;;18.60;63.80;;;;;;5054085;28;20499;-38
2020/12/02 11:59:04;;;;;;;8.90;3.70;;;18.60;64.10;;;;;;5058456;28;20056;-39
2020/12/02 12:01:50;;;;;;;7.80;3.90;;;18.60;64.20;;;;;;5062805;28;20076;-39
2020/12/02 12:04:28;;;;;;;12.88;4.82;;;18.60;63.90;;;;;;5073317;28;20090;-40
2020/12/02 12:06:55;;;;;;;9.55;4.50;;;18.60;63.80;;;;;;5070158;28;20075;-39
2020/12/02 12:09:48;;;;;;;7.68;4.20;;;18.60;63.80;;;;;;5066937;28;20123;-39
2020/12/02 12:12:38;;;;;;;8.43;4.70;;;18.70;64.10;;;;;;5072674;28;20044;-39
2020/12/02 12:15:21;;;;;;;11.57;5.07;;;18.60;64.20;;;;;;5073333;28;20040;-37
2020/12/02 12:17:47;;;;;;;9.60;4.43;;;18.60;64.70;;;;;;5079092;28;20499;-39
2020/12/02 12:20:20;;;;;;;11.05;4.80;;;18.70;64.90;;;;;;5066808;28;20052;-38
2020/12/02 12:23:09;;;;;;;6.80;4.40;;;18.60;64.70;;;;;;5070675;28;20443;-38
2020/12/02 12:25:35;;;;;;;17.42;4.45;;;18.60;64.70;;;;;;5031126;28;20229;-38
2020/12/02 12:28:04;;;;;;;7.68;4.20;;;18.70;64.60;;;;;;5023836;28;20050;-39
2020/12/02 12:30:30;;;;;;;14.40;4.57;;;18.70;65.30;;;;;;5026355;28;20077;-41
2020/12/02 12:33:07;;;;;;;9.30;3.97;;;18.70;64.60;;;;;;5031811;28;20088;-39
2020/12/02 12:35:37;;;;;;;9.60;3.75;;;18.70;64.70;;;;;;5007031;28;20520;-39
2020/12/02 12:38:24;;;;;;;8.30;3.95;;;18.80;65.20;;;;;;5022084;28;20052;-39
2020/12/02 12:40:59;;;;;;;8.88;3.40;;;18.80;64.60;;;;;;5024229;28;20072;-39
2020/12/02 12:43:27;;;;;;;7.97;3.70;;;18.80;64.50;;;;;;5013862;28;20464;-38
2020/12/02 12:45:57;;;;;;;12.73;3.45;;;18.80;64.20;;;;;;5011486;28;20054;-39
2020/12/02 12:48:23;;;;;;;6.82;3.33;;;18.80;64.10;;;;;;5017080;28;20041;-37
2020/12/02 12:50:49;;;;;;;10.65;3.50;;;18.80;64.30;;;;;;5031077;28;20505;-39
2020/12/02 12:53:15;;;;;;;7.20;3.15;;;18.80;64.60;;;;;;5034596;28;20127;-39
2020/12/02 12:55:41;;;;;;;9.93;4.05;;;18.80;64.40;;;;;;5034453;28;20127;-40
2020/12/02 12:58:12;;;;;;;5.10;3.40;;;18.90;64.20;;;;;;5032113;28;20527;-40
2020/12/02 13:00:51;;;;;;;7.63;3.47;;;18.90;64.10;;;;;;5029019;28;20034;-43
2020/12/02 13:03:19;;;;;;;8.50;3.50;;;18.90;64.40;;;;;;5054759;28;20146;-43
2020/12/02 13:06:17;;;;;;;8.70;3.50;;;18.90;64.10;;;;;;5071375;28;20048;-42
2020/12/02 13:09:07;;;;;;;7.35;2.90;;;18.90;63.80;;;;;;5068298;28;20408;-39
2020/12/02 13:11:39;;;;;;;6.50;2.88;;;18.90;63.70;;;;;;5060393;28;20049;-40
2020/12/02 13:14:11;;;;;;;4.40;3.40;;;18.90;63.60;;;;;;5080933;28;20056;-41
2020/12/02 13:16:44;;;;;;;5.18;2.83;;;18.90;63.50;;;;;;5062235;28;20052;-40
2020/12/02 13:19:13;;;;;;;7.13;3.30;;;18.90;63.50;;;;;;5070749;28;20044;-40
2020/12/02 13:21:51;;;;;;;5.85;3.58;;;18.90;63.40;;;;;;5078168;28;20048;-41
2020/12/02 13:24:37;;;;;;;4.97;3.10;;;18.90;64.00;;;;;;5068473;28;20048;-40
2020/12/02 13:27:15;;;;;;;4.68;2.95;;;18.90;63.80;;;;;;5064360;28;20044;-41
2020/12/02 13:29:41;;;;;;;3.97;3.58;;;18.90;63.60;;;;;;5070464;28;20040;-42
2020/12/02 13:32:26;;;;;;;5.13;3.28;;;18.90;63.60;;;;;;5074659;28;20425;-41
2020/12/02 13:34:53;;;;;;;3.47;2.95;;;18.90;63.80;;;;;;5072979;28;20150;-41
2020/12/02 13:37:18;;;;;;;5.32;3.15;;;18.90;63.90;;;;;;5071163;28;20510;-41
2020/12/02 13:39:44;;;;;;;6.35;2.80;;;18.90;63.90;;;;;;5074913;28;20056;-40
2020/12/02 13:42:10;;;;;;;4.60;2.90;;;18.90;63.90;;;;;;5073955;28;20039;-40
2020/12/02 13:44:50;;;;;;;4.93;3.55;;;18.90;64.10;;;;;;5072238;28;20582;-41
2020/12/02 13:47:15;;;;;;;4.38;3.53;;;18.90;64.10;;;;;;5065714;28;20067;-41
2020/12/02 13:49:41;;;;;;;3.75;3.08;;;18.90;64.10;;;;;;5070820;28;20499;-42
2020/12/02 13:52:22;;;;;;;3.28;2.90;;;18.90;64.00;;;;;;5070475;28;20041;-42
2020/12/02 13:54:56;;;;;;;7.10;3.60;;;18.90;64.20;;;;;;5073103;28;20356;-41
2020/12/02 13:57:25;;;;;;;;;;;18.80;64.50;;;;;;5075718;28;20040;-41
2020/12/02 14:00:15;;;;;;;3.95;2.72;;;18.90;64.80;;;;;;5067252;28;19920;-40
2020/12/02 14:02:44;;;;;;;4.75;2.95;;;18.90;65.10;;;;;;5062490;28;20033;-41
2020/12/02 14:05:24;;;;;;;6.32;3.13;;;18.90;65.10;;;;;;5073354;28;20047;-39
2020/12/02 14:07:50;;;;;;;5.65;4.07;;;18.90;65.20;;;;;;5063143;28;20106;-40
2020/12/02 14:10:16;;;;;;;8.35;3.70;;;18.90;65.10;;;;;;5073945;28;20111;-41
2020/12/02 14:12:41;;;;;;;4.82;2.97;;;18.90;65.10;;;;;;5069535;28;20447;-40
2020/12/02 14:15:11;;;;;;;4.20;2.78;;;18.90;65.00;;;;;;5074382;28;20098;-40
2020/12/02 14:17:37;;;;;;;6.80;3.10;;;18.90;65.00;;;;;;5076836;28;20075;-43
2020/12/02 14:20:04;;;;;;;4.25;3.03;;;18.80;64.80;;;;;;5069359;28;20491;-42
2020/12/02 14:22:29;;;;;;;4.28;3.20;;;18.90;64.90;;;;;;5068051;28;20048;-42
2020/12/02 14:24:57;;;;;;;7.38;3.05;;;18.90;64.90;;;;;;5060261;28;20503;-42
2020/12/02 14:27:27;;;;;;;3.40;3.10;;;18.90;64.80;;;;;;5065446;28;20040;-43
2020/12/02 14:29:55;;;;;;;4.20;2.85;;;18.90;64.90;;;;;;5065706;28;20102;-42
2020/12/02 14:32:21;;;;;;;5.88;2.65;;;18.90;65.00;;;;;;5074403;28;20032;-40
2020/12/02 14:34:46;;;;;;;7.05;4.18;;;18.90;65.00;;;;;;5087838;28;20047;-40
2020/12/02 14:37:12;;;;;;;8.13;3.70;;;18.90;65.30;;;;;;5077955;28;20415;-43
2020/12/02 14:39:38;;;;;;;8.77;3.53;;;18.90;65.30;;;;;;5080498;28;20136;-44
2020/12/02 14:42:06;;;;;;;4.00;3.13;;;18.90;65.30;;;;;;5083651;28;20131;-44
2020/12/02 14:44:32;;;;;;;3.70;3.40;;;18.90;65.30;;;;;;5067017;28;20090;-40
2020/12/02 14:46:57;;;;;;;6.45;3.45;;;18.90;65.40;;;;;;5051743;28;20495;-43
2020/12/02 14:49:24;;;;;;;4.00;3.58;;;18.90;65.60;;;;;;5069913;28;20039;-41
2020/12/02 14:51:49;;;;;;;12.25;3.42;;;18.90;65.80;;;;;;5071343;28;20062;-41
2020/12/02 14:54:15;;;;;;;3.47;2.55;;;18.90;66.20;;;;;;5082106;28;20040;-42
2020/12/02 14:57:03;;;;;;;3.75;2.65;;;18.90;66.30;;;;;;5081139;28;20500;-41
2020/12/02 15:00:03;;;;;;;5.47;3.15;;;18.90;66.70;;;;;;5088082;28;20100;-43
2020/12/02 15:02:28;;;;;;;5.05;3.05;;;18.90;66.90;;;;;;5081280;28;20044;-41
2020/12/02 15:04:54;;;;;;;3.80;2.50;;;18.90;67.40;;;;;;5069009;28;20052;-41
2020/12/02 15:07:56;;;;;;;5.57;2.95;;;18.90;67.50;;;;;;5076227;28;20036;-42
2020/12/02 15:10:24;;;;;;;4.75;2.63;;;19.00;67.80;;;;;;5070025;28;20139;-41
2020/12/02 15:12:52;;;;;;;3.35;2.97;;;19.00;67.60;;;;;;5066376;28;20403;-42
2020/12/02 15:15:21;;;;;;;3.72;3.03;;;19.00;67.80;;;;;;5067626;28;20500;-44
2020/12/02 15:17:51;;;;;;;4.10;3.40;;;18.90;68.00;;;;;;5073987;28;20044;-41
2020/12/02 15:20:26;;;;;;;3.08;2.60;;;18.90;67.50;;;;;;5079123;28;20055;-41
2020/12/02 15:22:53;;;;;;;3.80;2.22;;;19.00;67.40;;;;;;5078899;28;20094;-43
2020/12/02 15:25:19;;;;;;;3.13;2.60;;;19.00;67.10;;;;;;5068652;28;20043;-40
2020/12/02 15:27:50;;;;;;;2.25;2.05;;;19.00;67.00;;;;;;5066740;28;20044;-40
2020/12/02 15:30:33;;;;;;;4.22;2.25;;;19.00;66.90;;;;;;5072242;28;20422;-40
2020/12/02 15:33:01;;;;;;;3.50;2.00;;;19.00;67.00;;;;;;5077451;28;20411;-40
2020/12/02 15:35:27;;;;;;;3.28;2.45;;;19.00;66.80;;;;;;5097308;28;20048;-44
2020/12/02 15:38:00;;;;;;;5.55;2.30;;;19.00;67.10;;;;;;5069575;28;20515;-40
2020/12/02 15:40:32;;;;;;;3.40;2.20;;;19.00;67.00;;;;;;5080596;28;20043;-41
2020/12/02 15:43:22;;;;;;;2.47;2.08;;;19.00;67.20;;;;;;5074956;28;20604;-43
2020/12/02 15:46:09;;;;;;;2.20;2.10;;;19.00;66.90;;;;;;5068211;28;20039;-43
2020/12/02 15:48:35;;;;;;;3.30;1.98;;;19.00;66.80;;;;;;5066714;28;20139;-41
2020/12/02 15:51:04;;;;;;;2.25;2.05;;;19.00;66.80;;;;;;5076644;28;20119;-42
2020/12/02 15:53:51;;;;;;;2.58;1.80;;;19.00;66.70;;;;;;5064926;28;20044;-40
2020/12/02 15:56:47;;;;;;;3.13;2.05;;;19.00;66.70;;;;;;5063358;28;20111;-39
2020/12/02 15:59:42;;;;;;;2.40;2.00;;;19.00;66.80;;;;;;5073739;28;20040;-40
2020/12/02 16:02:11;;;;;;;4.53;2.08;;;19.10;66.50;;;;;;5070256;28;20047;-44
2020/12/02 16:04:39;;;;;;;2.80;2.45;;;19.10;66.30;;;;;;5071645;28;20112;-41
2020/12/02 16:07:25;;;;;;;3.05;2.67;;;19.10;66.10;;;;;;5060957;28;20503;-40
2020/12/02 16:09:59;;;;;;;4.43;2.65;;;19.10;66.20;;;;;;5059877;28;20446;-40
2020/12/02 16:12:27;;;;;;;2.63;2.40;;;19.10;65.90;;;;;;5072331;28;20071;-41
2020/12/02 16:14:54;;;;;;;2.20;2.10;;;19.10;65.80;;;;;;5070344;28;20044;-40
2020/12/02 16:17:20;;;;;;;3.90;2.20;;;19.10;65.90;;;;;;5070117;28;20060;-37
2020/12/02 16:19:45;;;;;;;4.07;2.10;;;19.10;65.80;;;;;;5067353;28;20072;-35
2020/12/02 16:22:33;;;;;;;3.80;1.98;;;19.10;66.60;;;;;;5078807;28;20362;-40
2020/12/02 16:25:00;;;;;;;1.85;1.70;;;19.10;65.60;;;;;;5062732;28;20097;-40
2020/12/02 16:27:25;;;;;;;4.25;1.88;;;19.10;65.50;;;;;;5081235;28;20039;-40
2020/12/02 16:29:51;;;;;;;1.92;1.83;;;19.10;65.40;;;;;;5069782;28;20449;-39
2020/12/02 16:32:18;;;;;;;6.63;1.83;;;19.10;65.60;;;;;;5064958;28;20044;-39
2020/12/02 16:34:43;;;;;;;3.17;1.90;;;19.20;65.70;;;;;;5073393;28;20527;-37
2020/12/02 16:37:34;;;;;;;20.52;2.05;;;19.10;65.70;;;;;;5073535;28;20068;-38
2020/12/02 16:40:10;;;;;;;3.25;2.22;;;19.10;65.40;;;;;;5065308;28;20114;-37
2020/12/02 16:43:01;;;;;;;3.90;1.92;;;19.10;65.30;;;;;;5071340;28;20047;-38
2020/12/02 16:45:32;;;;;;;2.20;2.00;;;19.10;65.10;;;;;;5073926;28;20527;-37
2020/12/02 16:48:21;;;;;;;2.38;2.03;;;19.20;65.30;;;;;;5074768;28;20040;-37
2020/12/02 16:51:00;;;;;;;2.35;2.00;;;19.20;65.30;;;;;;5067386;28;20716;-37
2020/12/02 16:53:47;;;;;;;6.47;1.98;;;19.20;65.50;;;;;;5056411;28;20048;-37
2020/12/02 16:56:42;;;;;;;4.40;1.88;;;19.20;65.30;;;;;;5066989;28;20052;-40
2020/12/02 16:59:10;;;;;;;4.72;2.08;;;19.20;65.20;;;;;;5026220;28;20536;-38
2020/12/02 17:01:36;;;;;;;2.28;2.08;;;19.20;65.30;;;;;;5012388;28;20041;-38
2020/12/02 17:04:02;;;;;;;2.95;1.60;;;19.20;65.30;;;;;;5010591;28;20038;-38
2020/12/02 17:06:32;;;;;;;3.33;2.10;;;19.20;65.20;;;;;;5026828;28;20037;-37
2020/12/02 17:08:58;;;;;;;5.20;1.95;;;19.20;65.20;;;;;;5010465;28;20116;-38
2020/12/02 17:12:03;;;;;;;4.20;2.17;;;19.10;65.10;;;;;;4671971;28;10000302;-38
2020/12/02 17:14:38;;;;;;;2.67;2.28;;;19.10;65.40;;;;;;4675653;28;10000539;-38
2020/12/02 17:17:08;;;;;;;2.78;2.05;;;19.10;65.20;;;;;;5025924;28;20045;-39
2020/12/02 17:19:52;;;;;;;3.75;2.40;;;19.20;65.10;;;;;;5012475;28;20049;-42
2020/12/02 17:22:29;;;;;;;2.35;2.10;;;19.20;65.20;;;;;;5028999;28;20037;-39
2020/12/02 17:25:21;;;;;;;2.65;2.45;;;19.20;65.20;;;;;;5025818;28;20058;-37
2020/12/02 17:28:11;;;;;;;3.95;2.17;;;19.10;65.00;;;;;;5008606;28;20045;-39
2020/12/02 17:30:54;;;;;;;5.22;2.63;;;19.20;65.00;;;;;;5024047;28;21416;-36
2020/12/02 17:33:51;;;;;;;2.63;2.53;;;19.10;65.00;;;;;;5010286;28;20500;-37
2020/12/02 17:36:51;;;;;;;2.20;1.70;;;19.20;65.00;;;;;;5041932;28;20482;-36
2020/12/02 17:39:45;;;;;;;5.10;2.22;;;19.20;64.80;;;;;;5022086;28;20140;-38
2020/12/02 17:42:20;;;;;;;3.95;2.25;;;19.20;65.00;;;;;;5008908;28;20095;-37
2020/12/02 17:45:08;;;;;;;3.35;2.08;;;19.20;65.00;;;;;;5024809;28;20523;-39
2020/12/02 17:47:59;;;;;;;2.38;2.17;;;19.10;65.00;;;;;;5022685;28;20041;-40
2020/12/02 17:50:35;;;;;;;3.60;2.45;;;19.10;65.00;;;;;;5025373;28;20468;-39
2020/12/02 17:53:13;;;;;;;4.47;2.40;;;19.10;65.00;;;;;;5023095;28;20505;-39
2020/12/02 17:55:51;;;;;;;3.55;2.60;;;19.10;64.80;;;;;;5027123;28;20049;-37
2020/12/02 17:58:17;;;;;;;3.90;2.70;;;19.10;64.90;;;;;;5026241;28;20146;-38
2020/12/02 18:00:52;;;;;;;4.07;2.60;;;19.20;64.90;;;;;;5026715;28;20136;-37
2020/12/02 18:03:35;;;;;;;3.42;2.22;;;19.10;64.70;;;;;;5022880;28;20049;-38
2020/12/02 18:06:16;;;;;;;2.47;2.28;;;19.10;64.60;;;;;;5020151;28;20159;-38
2020/12/02 18:08:44;;;;;;;5.75;2.67;;;19.20;64.70;;;;;;5025334;28;20042;-37
2020/12/02 18:11:14;;;;;;;3.13;2.92;;;19.20;64.80;;;;;;5025062;28;20051;-36
2020/12/02 18:14:12;;;;;;;3.30;3.10;;;19.10;64.60;;;;;;5027588;28;20033;-37
2020/12/02 18:16:45;;;;;;;3.10;2.90;;;19.20;64.50;;;;;;5069485;28;20104;-38
2020/12/02 18:19:21;;;;;;;2.23;2.13;;;19.20;64.40;;;;;;5069901;28;20053;-39
2020/12/02 18:22:12;;;;;;;3.40;2.55;;;19.20;64.60;;;;;;5056802;28;20099;-37
2020/12/02 18:25:02;;;;;;;5.85;2.17;;;19.10;64.70;;;;;;5047928;28;20130;-37
2020/12/02 18:27:58;;;;;;;3.30;2.45;;;19.10;64.60;;;;;;5067910;28;20056;-41
2020/12/02 18:30:44;;;;;;;3.38;2.90;;;19.20;64.50;;;;;;5065928;28;20067;-38
2020/12/02 18:33:33;;;;;;;5.18;3.22;;;19.10;64.50;;;;;;5067973;28;20569;-37
2020/12/02 18:36:44;;;;;;;2.90;2.28;;;19.10;64.40;;;;;;5030679;28;20800;-37
2020/12/02 18:39:31;;;;;;;4.07;2.83;;;19.10;64.60;;;;;;4977488;28;20061;-40
2020/12/02 18:42:09;;;;;;;2.75;2.53;;;19.10;64.50;;;;;;4975370;28;20522;-38
2020/12/02 18:44:35;;;;;;;2.80;2.58;;;19.10;64.40;;;;;;4977760;28;20051;-40
2020/12/02 18:47:02;;;;;;;2.97;2.65;;;19.10;64.30;;;;;;4976801;28;20085;-43
2020/12/02 18:49:41;;;;;;;2.70;2.50;;;19.10;64.20;;;;;;4978699;28;20674;-43
2020/12/02 18:52:10;;;;;;;2.67;2.47;;;19.10;64.20;;;;;;4974307;28;20047;-41
2020/12/02 18:54:36;;;;;;;2.67;2.40;;;19.10;64.20;;;;;;4976677;28;20137;-41
2020/12/02 18:57:20;;;;;;;2.05;1.95;;;19.10;64.20;;;;;;4981132;28;20046;-45
2020/12/02 18:59:47;;;;;;;3.75;2.63;;;19.10;64.20;;;;;;4979830;28;20082;-41
2020/12/02 19:02:20;;;;;;;9.85;3.50;;;19.10;64.20;;;;;;4971401;28;20065;-40
2020/12/02 19:05:01;;;;;;;10.30;3.10;;;19.20;64.20;;;;;;4978981;28;20045;-38
2020/12/02 19:07:31;;;;;;;7.88;2.95;;;19.10;64.20;;;;;;4963506;28;20053;-39
2020/12/02 19:09:57;;;;;;;7.68;2.70;;;19.10;64.30;;;;;;4975661;28;20637;-41
2020/12/02 19:12:35;;;;;;;4.70;2.30;;;19.10;64.30;;;;;;4982569;28;20045;-40
2020/12/02 19:15:16;;;;;;;5.50;2.70;;;19.10;64.20;;;;;;5014047;28;20052;-39
2020/12/02 19:18:08;;;;;;;4.20;3.58;;;19.00;64.10;;;;;;5091822;28;20743;-39
2020/12/02 19:20:43;;;;;;;4.40;3.92;;;19.10;64.10;;;;;;5032707;28;20083;-39
2020/12/02 19:23:23;;;;;;;9.48;3.50;;;19.10;64.10;;;;;;5011645;28;20063;-39
2020/12/02 19:25:54;;;;;;;4.50;3.55;;;19.10;64.10;;;;;;5032777;28;20118;-40
2020/12/02 19:28:32;;;;;;;9.90;5.30;;;19.10;64.40;;;;;;5010139;28;20446;-40
2020/12/02 19:31:21;;;;;;;8.07;5.55;;;19.10;64.20;;;;;;5014489;28;20053;-40
2020/12/02 19:34:04;;;;;;;15.40;6.75;;;19.10;64.40;;;;;;5031023;28;20069;-40
2020/12/02 19:36:37;;;;;;;23.77;7.53;;;19.10;64.70;;;;;;5024843;28;20048;-39
2020/12/02 19:39:08;;;;;;;15.82;6.72;;;19.10;65.90;;;;;;5001108;28;20053;-39
2020/12/02 19:41:57;;;;;;;16.13;6.97;;;19.10;65.00;;;;;;5028816;28;20052;-39
2020/12/02 19:44:39;;;;;;;17.92;5.80;;;19.10;65.00;;;;;;5018448;28;20447;-40
2020/12/02 19:47:16;;;;;;;14.15;6.22;;;19.10;64.80;;;;;;5032225;28;20049;-38
2020/12/02 19:49:43;;;;;;;12.80;6.80;;;19.10;65.00;;;;;;5021898;28;20021;-39
2020/12/02 19:52:13;;;;;;;9.40;6.30;;;19.20;64.70;;;;;;5029656;28;20490;-41
2020/12/02 19:54:40;;;;;;;8.07;5.50;;;19.10;64.90;;;;;;5033686;28;20061;-39
2020/12/02 19:57:28;;;;;;;8.50;6.15;;;19.10;64.90;;;;;;5051480;28;20048;-40
2020/12/02 20:00:04;;;;;;;15.40;5.93;;;19.10;65.10;;;;;;5069342;28;20052;-39
2020/12/02 20:02:38;;;;;;;12.88;5.53;;;19.10;64.90;;;;;;4706555;28;9999896;-39
2020/12/02 20:05:19;;;;;;;10.50;5.80;;;19.10;65.00;;;;;;5054417;28;20182;-39
2020/12/02 20:07:58;;;;;;;7.65;4.70;;;19.10;64.90;;;;;;5059009;28;20422;-39
2020/12/02 20:10:40;;;;;;;7.82;5.10;;;19.10;65.10;;;;;;5049535;28;20097;-39
2020/12/02 20:13:13;;;;;;;6.45;5.20;;;19.20;65.30;;;;;;5039971;28;20087;-39
2020/12/02 20:15:59;;;;;;;8.10;5.10;;;19.10;65.20;;;;;;5059018;28;20064;-40
2020/12/02 20:18:52;;;;;;;5.95;5.03;;;19.10;65.20;;;;;;5053975;28;20298;-39
2020/12/02 20:21:48;;;;;;;6.88;4.72;;;19.10;65.30;;;;;;5065774;28;20052;-39
2020/12/02 20:24:46;;;;;;;7.38;4.75;;;19.20;65.40;;;;;;5043823;28;20131;-39
2020/12/02 20:27:16;;;;;;;10.00;5.55;;;19.10;65.30;;;;;;5064348;28;20521;-40
2020/12/02 20:29:46;;;;;;;10.00;4.88;;;19.10;65.60;;;;;;5053415;28;20025;-40
2020/12/02 20:32:22;;;;;;;7.38;4.40;;;19.10;65.30;;;;;;5057967;28;21654;-40
2020/12/02 20:34:50;;;;;;;11.75;4.35;;;19.20;65.60;;;;;;5074468;28;20127;-39
2020/12/02 20:37:30;;;;;;;8.30;4.53;;;19.20;65.70;;;;;;5060141;28;20052;-40
2020/12/02 20:40:00;;;;;;;11.18;5.32;;;19.20;65.80;;;;;;5058033;28;20056;-39
2020/12/02 20:42:29;;;;;;;9.75;4.18;;;19.10;65.80;;;;;;5052433;28;20076;-39
2020/12/02 20:44:55;;;;;;;8.55;4.32;;;19.20;65.80;;;;;;5056061;28;20041;-40
2020/12/02 20:47:32;;;;;;;7.88;5.00;;;19.10;65.80;;;;;;5064734;28;20131;-39
2020/12/02 20:50:10;;;;;;;6.47;4.55;;;19.10;65.80;;;;;;5069097;28;20059;-41
2020/12/02 20:52:39;;;;;;;7.22;4.00;;;19.20;65.80;;;;;;5071998;28;20028;-39
2020/12/02 20:55:04;;;;;;;6.00;4.18;;;19.20;66.10;;;;;;5069731;28;20048;-39
2020/12/02 20:57:49;;;;;;;10.63;4.72;;;19.20;65.90;;;;;;5064278;28;20037;-37
2020/12/02 21:00:15;;;;;;;9.13;4.78;;;19.10;65.70;;;;;;5074212;28;20127;-42
2020/12/02 21:02:43;;;;;;;6.40;3.92;;;19.10;65.60;;;;;;5076926;28;20032;-40
2020/12/02 21:05:14;;;;;;;6.95;3.80;;;19.10;65.40;;;;;;5073063;28;20055;-39
2020/12/02 21:07:40;;;;;;;5.38;3.63;;;19.10;65.40;;;;;;5067840;28;20048;-39
2020/12/02 21:10:06;;;;;;;6.03;4.40;;;19.20;65.40;;;;;;5060435;28;20372;-42
2020/12/02 21:12:31;;;;;;;5.30;4.10;;;19.20;65.40;;;;;;5073324;28;20073;-38
2020/12/02 21:14:57;;;;;;;6.50;3.67;;;19.20;65.40;;;;;;5074663;28;20055;-38
2020/12/02 21:17:43;;;;;;;11.48;4.43;;;19.10;65.60;;;;;;5077736;28;20052;-38
2020/12/02 21:20:23;;;;;;;6.57;3.72;;;19.10;65.60;;;;;;5071205;28;20131;-38
2020/12/02 21:22:52;;;;;;;7.47;3.92;;;19.10;65.70;;;;;;5070283;28;20048;-38
2020/12/02 21:25:31;;;;;;;4.35;3.72;;;19.10;65.60;;;;;;5066837;28;20653;-41
2020/12/02 21:28:19;;;;;;;5.65;3.88;;;19.10;66.10;;;;;;5055096;28;20049;-38